createdAt,value
2023-03-24T00:00:51.517Z,10.84
2023-03-24T00:03:19.455Z,10.84
2023-03-24T00:05:54.397Z,10.80
2023-03-24T00:08:22.674Z,10.84
2023-03-24T00:10:51.148Z,10.91
2023-03-24T00:13:18.422Z,10.95
2023-03-24T00:15:48.770Z,10.99
2023-03-24T00:18:16.208Z,10.95
2023-03-24T00:20:46.360Z,10.91
2023-03-24T00:23:14.157Z,10.85
2023-03-24T00:25:41.900Z,10.74
2023-03-24T00:28:11.233Z,10.64
2023-03-24T00:30:41.668Z,10.55
2023-03-24T00:33:09.907Z,10.42
2023-03-24T00:35:39.449Z,10.21
2023-03-24T00:38:06.873Z,10.05
2023-03-24T00:40:34.340Z,10.05
2023-03-24T00:43:01.848Z,10.15
2023-03-24T00:45:29.362Z,10.21
2023-03-24T00:47:58.477Z,10.16
2023-03-24T00:50:27.357Z,10.09
2023-03-24T00:52:58.559Z,9.96
2023-03-24T00:55:28.546Z,9.85
2023-03-24T00:57:57.196Z,9.79
2023-03-24T01:00:27.342Z,9.79
2023-03-24T01:02:57.982Z,9.78
2023-03-24T01:05:31.564Z,9.77
2023-03-24T01:08:03.384Z,9.74
2023-03-24T01:10:36.238Z,9.72
2023-03-24T01:13:04.155Z,9.75
2023-03-24T01:15:34.403Z,9.72
2023-03-24T01:18:02.803Z,9.69
2023-03-24T01:20:35.672Z,9.65
2023-03-24T01:23:06.098Z,9.65
2023-03-24T01:25:37.937Z,9.64
2023-03-24T01:28:05.789Z,9.64
2023-03-24T01:30:33.238Z,9.70
2023-03-24T01:33:05.601Z,9.73
2023-03-24T01:35:46.122Z,9.78
2023-03-24T01:38:24.665Z,9.79
2023-03-24T01:41:02.192Z,9.80
2023-03-24T01:43:41.904Z,9.85
2023-03-24T01:46:27.723Z,9.91
2023-03-24T01:49:13.150Z,9.99
2023-03-24T01:51:50.238Z,10.00
2023-03-24T01:54:31.730Z,10.02
2023-03-24T01:57:21.951Z,10.07
2023-03-24T02:00:03.121Z,10.13
2023-03-24T02:03:04.910Z,10.12
2023-03-24T02:05:51.793Z,10.11
2023-03-24T02:08:28.456Z,10.06
2023-03-24T02:10:59.062Z,10.04
2023-03-24T02:13:34.874Z,10.00
2023-03-24T02:16:06.111Z,9.99
2023-03-24T02:19:25.149Z,10.03
2023-03-24T02:22:47.354Z,10.05
2023-03-24T02:25:43.969Z,10.11
2023-03-24T02:28:20.446Z,10.14
2023-03-24T02:31:35.840Z,10.15
2023-03-24T02:34:24.619Z,10.16
2023-03-24T02:37:27.622Z,10.14
2023-03-24T02:40:31.915Z,10.11
2023-03-24T02:43:24.775Z,10.07
2023-03-24T02:46:53.157Z,10.01
2023-03-24T02:49:51.967Z,9.98
2023-03-24T02:52:39.649Z,9.98
2023-03-24T02:55:26.623Z,9.96
2023-03-24T02:58:00.169Z,9.96
2023-03-24T03:00:59.363Z,9.96
2023-03-24T03:03:57.533Z,9.91
2023-03-24T03:06:32.396Z,9.88
2023-03-24T03:09:08.726Z,9.90
2023-03-24T03:11:38.757Z,9.90
2023-03-24T03:14:14.450Z,9.90
2023-03-24T03:16:59.984Z,9.96
2023-03-24T03:19:40.196Z,9.92
2023-03-24T03:22:18.096Z,9.94
2023-03-24T03:24:51.036Z,9.91
2023-03-24T03:27:27.292Z,9.90
2023-03-24T03:30:04.802Z,9.85
2023-03-24T03:32:40.310Z,9.84
2023-03-24T03:35:31.573Z,9.82
2023-03-24T03:38:15.814Z,9.84
2023-03-24T03:40:59.307Z,9.83
2023-03-24T03:43:33.462Z,9.79
2023-03-24T03:46:06.531Z,9.77
2023-03-24T03:48:39.088Z,9.78
2023-03-24T03:51:13.865Z,9.78
2023-03-24T03:53:53.443Z,9.75
2023-03-24T03:56:26.474Z,9.73
2023-03-24T03:59:44.839Z,9.76
2023-03-24T04:02:42.220Z,9.81
2023-03-24T04:05:29.351Z,9.79
2023-03-24T04:08:18.752Z,9.78
2023-03-24T04:11:25.948Z,9.82
2023-03-24T04:14:37.346Z,9.90
2023-03-24T04:17:54.887Z,9.97
2023-03-24T04:20:57.381Z,10.07
2023-03-24T04:23:54.869Z,10.11
2023-03-24T04:27:09.858Z,10.14
2023-03-24T04:29:47.794Z,10.19
2023-03-24T04:32:25.393Z,10.20
2023-03-24T04:35:02.819Z,10.16
2023-03-24T04:38:13.092Z,10.23
2023-03-24T04:40:43.891Z,10.28
2023-03-24T04:43:18.860Z,10.29
2023-03-24T04:45:50.262Z,10.33
2023-03-24T04:48:38.144Z,10.41
2023-03-24T04:51:12.812Z,10.53
2023-03-24T04:53:58.739Z,10.64
2023-03-24T04:56:29.010Z,10.75
2023-03-24T04:59:04.364Z,10.84
2023-03-24T05:01:32.939Z,10.97
2023-03-24T05:04:28.162Z,11.12
2023-03-24T05:06:58.005Z,11.27
2023-03-24T05:09:27.626Z,11.41
2023-03-24T05:11:55.284Z,11.52
2023-03-24T05:14:24.276Z,11.58
2023-03-24T05:16:52.087Z,11.66
2023-03-24T05:19:21.569Z,11.67
2023-03-24T05:21:51.553Z,11.73
2023-03-24T05:24:19.444Z,11.83
2023-03-24T05:26:47.208Z,11.89
2023-03-24T05:29:17.994Z,11.97
2023-03-24T05:31:46.211Z,12.10
2023-03-24T05:34:17.839Z,12.32
2023-03-24T05:36:56.812Z,12.60
2023-03-24T05:39:24.701Z,12.80
2023-03-24T05:41:59.241Z,12.90
2023-03-24T05:44:26.747Z,13.49
2023-03-24T05:47:05.098Z,16.20
2023-03-24T05:49:35.757Z,18.83
2023-03-24T05:52:03.830Z,20.49
2023-03-24T05:54:34.105Z,22.42
2023-03-24T05:57:16.790Z,23.68
2023-03-24T06:00:09.636Z,23.71
2023-03-24T06:02:51.552Z,24.76
2023-03-24T06:05:29.386Z,27.01
2023-03-24T06:08:01.400Z,24.20
2023-03-24T06:10:31.873Z,25.12
2023-03-24T06:13:00.921Z,24.92
2023-03-24T06:15:30.856Z,25.21
2023-03-24T06:18:14.170Z,27.66
2023-03-24T06:20:44.196Z,26.03
2023-03-24T06:23:18.394Z,24.62
2023-03-24T06:26:11.696Z,24.51
2023-03-24T06:28:58.951Z,25.15
2023-03-24T06:31:32.744Z,26.44
2023-03-24T06:34:00.552Z,26.40
2023-03-24T06:36:28.315Z,25.43
2023-03-24T06:38:56.366Z,25.66
2023-03-24T06:41:28.708Z,26.06
2023-03-24T06:43:59.990Z,28.95
2023-03-24T06:46:27.560Z,27.89
2023-03-24T06:48:55.726Z,26.80
2023-03-24T06:51:23.527Z,27.20
2023-03-24T06:53:51.164Z,27.57
2023-03-24T06:56:21.052Z,26.46
2023-03-24T06:58:55.370Z,26.66
2023-03-24T07:01:28.711Z,26.44
2023-03-24T07:04:05.085Z,28.10
2023-03-24T07:09:26.053Z,30.50
2023-03-24T07:11:53.509Z,30.29
2023-03-24T07:14:22.152Z,29.32
2023-03-24T07:16:50.746Z,31.74
2023-03-24T07:19:36.743Z,32.82
2023-03-24T07:22:39.422Z,29.37
2023-03-24T07:25:26.012Z,31.82
2023-03-24T07:28:01.734Z,33.42
2023-03-24T07:30:39.903Z,33.27
2023-03-24T07:33:12.530Z,34.05
2023-03-24T07:35:42.840Z,35.69
2023-03-24T07:38:10.789Z,35.23
2023-03-24T07:40:39.025Z,31.91
2023-03-24T07:43:06.661Z,34.58
2023-03-24T07:46:00.716Z,35.00
2023-03-24T07:48:29.882Z,33.31
2023-03-24T07:50:57.573Z,34.17
2023-03-24T07:53:57.357Z,34.17
2023-03-24T07:56:42.186Z,36.01
2023-03-24T07:59:12.279Z,35.56
2023-03-24T08:01:56.970Z,32.43
2023-03-24T08:04:47.230Z,34.52
2023-03-24T08:07:56.236Z,35.21
2023-03-24T08:10:29.780Z,34.59
2023-03-24T08:12:58.907Z,35.99
2023-03-24T08:15:27.719Z,34.39
2023-03-24T08:17:56.827Z,34.36
2023-03-24T08:20:27.423Z,36.81
2023-03-24T08:22:55.652Z,36.03
2023-03-24T08:25:25.924Z,36.07
2023-03-24T08:27:54.382Z,31.91
2023-03-24T08:30:25.184Z,34.30
2023-03-24T08:32:59.497Z,34.03
2023-03-24T08:35:32.709Z,33.22
2023-03-24T08:38:06.086Z,31.87
2023-03-24T08:40:42.058Z,31.33
2023-03-24T08:43:15.375Z,29.28
2023-03-24T08:45:43.420Z,29.93
2023-03-24T08:48:11.159Z,29.84
2023-03-24T08:50:42.086Z,29.69
2023-03-24T08:53:14.125Z,27.83
2023-03-24T08:55:43.226Z,27.18
2023-03-24T08:58:23.024Z,28.26
2023-03-24T09:00:50.725Z,29.36
2023-03-24T09:03:22.246Z,29.64
2023-03-24T09:05:50.955Z,29.04
2023-03-24T09:08:19.512Z,28.32
2023-03-24T09:10:47.429Z,28.87
2023-03-24T09:13:16.149Z,28.72
2023-03-24T09:15:53.452Z,30.02
2023-03-24T09:18:22.209Z,30.41
2023-03-24T09:20:51.033Z,30.77
2023-03-24T09:23:19.913Z,28.73
2023-03-24T09:25:53.814Z,30.24
2023-03-24T09:28:22.549Z,29.97
2023-03-24T09:30:50.933Z,28.24
2023-03-24T09:33:18.827Z,29.57
2023-03-24T09:35:47.027Z,30.00
2023-03-24T09:38:14.656Z,30.21
2023-03-24T09:40:43.597Z,30.67
2023-03-24T09:43:34.595Z,28.11
2023-03-24T09:46:05.442Z,29.74
2023-03-24T09:48:49.604Z,30.01
2023-03-24T09:51:27.841Z,31.22
2023-03-24T09:54:00.789Z,29.88
2023-03-24T09:56:30.501Z,30.39
2023-03-24T09:59:16.041Z,30.53
2023-03-24T10:01:45.447Z,30.10
2023-03-24T10:04:24.379Z,29.98
2023-03-24T10:07:27.505Z,30.94
2023-03-24T10:10:00.943Z,30.03
2023-03-24T10:12:39.378Z,29.23
2023-03-24T10:15:37.749Z,29.95
2023-03-24T10:18:53.622Z,29.54
2023-03-24T10:21:26.248Z,29.95
2023-03-24T10:24:33.637Z,29.54
2023-03-24T10:27:32.177Z,29.67
2023-03-24T10:30:17.118Z,30.39
2023-03-24T10:32:46.542Z,31.00
2023-03-24T10:35:57.205Z,31.75
2023-03-24T10:38:24.659Z,28.75
2023-03-24T10:40:54.874Z,30.42
2023-03-24T10:43:25.910Z,31.02
2023-03-24T10:45:56.513Z,31.11
2023-03-24T10:48:44.923Z,29.46
2023-03-24T10:51:27.373Z,29.24
2023-03-24T10:54:23.504Z,30.54
2023-03-24T10:57:00.886Z,30.45
2023-03-24T10:59:34.158Z,30.50
2023-03-24T11:02:11.140Z,28.72
2023-03-24T11:04:43.856Z,29.47
2023-03-24T11:07:21.760Z,29.98
2023-03-24T11:10:10.019Z,29.89
2023-03-24T11:12:41.494Z,29.38
2023-03-24T11:15:22.414Z,30.32
2023-03-24T11:18:11.178Z,29.17
2023-03-24T11:20:44.477Z,29.64
2023-03-24T11:23:21.676Z,28.96
2023-03-24T11:26:04.146Z,29.23
2023-03-24T11:28:41.567Z,29.77
2023-03-24T11:31:19.210Z,30.17
2023-03-24T11:34:02.865Z,30.53
2023-03-24T11:36:30.707Z,29.78
2023-03-24T11:39:19.138Z,30.30
2023-03-24T11:42:11.052Z,29.61
2023-03-24T11:44:38.488Z,29.13
2023-03-24T11:47:30.438Z,29.29
2023-03-24T11:50:09.891Z,29.07
2023-03-24T11:53:26.148Z,29.15
2023-03-24T11:56:32.685Z,28.60
2023-03-24T11:59:05.351Z,29.09
2023-03-24T12:01:45.412Z,29.57
2023-03-24T12:05:09.818Z,29.40
2023-03-24T12:07:54.738Z,29.20
2023-03-24T12:10:45.526Z,28.92
2023-03-24T12:13:32.244Z,29.37
2023-03-24T12:16:15.615Z,29.14
2023-03-24T12:18:48.921Z,28.42
2023-03-24T12:21:47.251Z,28.00
2023-03-24T12:24:52.099Z,27.74
2023-03-24T12:27:52.511Z,27.76
2023-03-24T12:30:56.391Z,27.03
2023-03-24T12:34:03.332Z,28.06
2023-03-24T12:36:39.457Z,28.08
2023-03-24T12:39:14.493Z,28.09
2023-03-24T12:42:00.130Z,27.92
2023-03-24T12:44:50.582Z,28.11
2023-03-24T12:47:42.301Z,28.13
2023-03-24T12:50:25.668Z,28.31
2023-03-24T12:53:30.073Z,27.74
2023-03-24T12:56:00.414Z,27.97
2023-03-24T12:58:27.885Z,28.03
2023-03-24T13:01:38.678Z,27.49
2023-03-24T13:04:18.470Z,27.65
2023-03-24T13:07:01.638Z,27.32
2023-03-24T13:10:15.128Z,27.42
2023-03-24T13:12:53.674Z,27.06
2023-03-24T13:15:33.598Z,27.09
2023-03-24T13:18:09.844Z,26.92
2023-03-24T13:20:48.012Z,26.91
2023-03-24T13:23:46.108Z,27.48
2023-03-24T13:26:40.961Z,27.38
2023-03-24T13:29:21.867Z,26.86
2023-03-24T13:32:23.585Z,27.27
2023-03-24T13:35:12.690Z,27.11
2023-03-24T13:37:44.486Z,26.40
2023-03-24T13:40:23.169Z,26.67
2023-03-24T13:42:56.840Z,26.78
2023-03-24T13:45:34.573Z,26.53
2023-03-24T13:48:11.337Z,26.78
2023-03-24T13:50:51.583Z,26.88
2023-03-24T13:53:44.241Z,26.61
2023-03-24T13:56:25.066Z,26.58
2023-03-24T13:58:58.612Z,26.94
2023-03-24T14:01:35.539Z,26.71
2023-03-24T14:04:28.962Z,26.42
2023-03-24T14:06:59.119Z,26.13
2023-03-24T14:09:27.982Z,26.65
2023-03-24T14:11:55.510Z,26.56
2023-03-24T14:14:27.789Z,26.39
2023-03-24T14:17:17.885Z,26.50
2023-03-24T14:19:58.727Z,26.58
2023-03-24T14:22:33.731Z,26.66
2023-03-24T14:25:04.481Z,26.43
2023-03-24T14:27:41.046Z,26.45
2023-03-24T14:30:11.698Z,26.24
2023-03-24T14:32:46.119Z,26.49
2023-03-24T14:35:44.668Z,26.54
2023-03-24T14:38:15.727Z,26.61
2023-03-24T14:40:48.732Z,26.39
2023-03-24T14:43:50.345Z,26.49
2023-03-24T14:46:20.782Z,26.46
2023-03-24T14:49:18.373Z,26.37
2023-03-24T14:52:28.247Z,26.64
2023-03-24T14:55:07.490Z,26.62
2023-03-24T14:57:41.940Z,26.60
2023-03-24T15:00:31.311Z,26.44
2023-03-24T15:03:24.480Z,26.49
2023-03-24T15:05:52.196Z,26.37
2023-03-24T15:08:27.094Z,26.15
2023-03-24T15:11:04.562Z,26.11
2023-03-24T15:13:41.872Z,26.14
2023-03-24T15:16:12.750Z,26.31
2023-03-24T15:21:42.192Z,26.28
2023-03-24T15:24:21.515Z,25.91
2023-03-24T15:26:55.001Z,26.17
2023-03-24T15:29:24.039Z,26.02
2023-03-24T15:31:51.555Z,26.06
2023-03-24T15:34:28.531Z,26.36
2023-03-24T15:37:05.302Z,26.20
2023-03-24T15:39:39.705Z,26.30
2023-03-24T15:42:16.331Z,26.41
2023-03-24T15:44:44.977Z,26.26
2023-03-24T15:47:31.781Z,26.35
2023-03-24T15:50:05.551Z,26.11
2023-03-24T15:52:39.090Z,25.95
2023-03-24T15:55:30.164Z,25.65
2023-03-24T15:58:01.831Z,25.60
2023-03-24T16:00:38.976Z,25.62
2023-03-24T16:03:07.246Z,25.37
2023-03-24T16:05:35.405Z,25.19
2023-03-24T16:08:25.834Z,25.05
2023-03-24T16:11:05.008Z,24.72
2023-03-24T16:13:32.517Z,24.41
2023-03-24T16:16:13.329Z,24.01
2023-03-24T16:18:47.356Z,23.66
2023-03-24T16:21:17.685Z,23.38
2023-03-24T16:23:46.537Z,23.10
2023-03-24T16:26:22.887Z,22.87
2023-03-24T16:28:52.167Z,22.65
2023-03-24T16:31:36.198Z,22.42
2023-03-24T16:34:03.708Z,22.24
2023-03-24T16:36:31.575Z,22.05
2023-03-24T16:39:01.713Z,21.89
2023-03-24T16:41:29.523Z,21.76
2023-03-24T16:43:56.969Z,21.65
2023-03-24T16:46:27.026Z,21.48
2023-03-24T16:48:55.972Z,21.18
2023-03-24T16:51:24.110Z,21.02
2023-03-24T16:53:51.487Z,20.90
2023-03-24T16:56:22.369Z,20.90
2023-03-24T16:58:53.282Z,20.69
2023-03-24T17:01:33.376Z,20.65
2023-03-24T17:04:10.704Z,20.52
2023-03-24T17:06:42.601Z,20.47
2023-03-24T17:09:11.200Z,20.33
2023-03-24T17:11:43.256Z,20.23
2023-03-24T17:14:13.978Z,20.27
2023-03-24T17:16:44.813Z,20.26
2023-03-24T17:19:18.899Z,20.21
2023-03-24T17:22:03.439Z,20.14
2023-03-24T17:24:41.619Z,20.09
2023-03-24T17:27:18.789Z,20.02
2023-03-24T17:29:46.528Z,19.89
2023-03-24T17:32:13.966Z,19.69
2023-03-24T17:34:47.801Z,19.64
2023-03-24T17:37:15.394Z,19.63
2023-03-24T17:39:43.133Z,19.53
2023-03-24T17:42:10.546Z,19.31
2023-03-24T17:44:38.023Z,19.14
2023-03-24T17:47:05.862Z,18.92
2023-03-24T17:49:37.450Z,18.78
2023-03-24T17:52:05.012Z,18.61
2023-03-24T17:54:32.461Z,18.48
2023-03-24T17:57:00.045Z,18.30
2023-03-24T17:59:27.686Z,18.12
2023-03-24T18:01:55.027Z,18.02
2023-03-24T18:04:23.825Z,18.20
2023-03-24T18:06:51.338Z,18.40
2023-03-24T18:09:18.800Z,18.52
2023-03-24T18:11:47.786Z,18.57
2023-03-24T18:14:15.862Z,18.58
2023-03-24T18:16:43.585Z,18.54
2023-03-24T18:19:11.263Z,18.57
2023-03-24T18:21:39.772Z,18.56
2023-03-24T18:24:07.741Z,18.56
2023-03-24T18:26:35.289Z,18.61
2023-03-24T18:29:03.520Z,18.52
2023-03-24T18:31:32.325Z,18.29
2023-03-24T18:34:00.415Z,18.23
2023-03-24T18:36:29.306Z,18.10
2023-03-24T18:39:06.944Z,18.01
2023-03-24T18:41:39.484Z,17.90
2023-03-24T18:44:13.679Z,17.76
2023-03-24T18:46:42.378Z,17.63
2023-03-24T18:49:14.716Z,17.52
2023-03-24T18:51:43.434Z,17.40
2023-03-24T18:54:13.136Z,17.28
2023-03-24T18:56:41.700Z,17.16
2023-03-24T18:59:09.475Z,17.07
2023-03-24T19:01:37.006Z,16.97
2023-03-24T19:04:04.622Z,16.89
2023-03-24T19:06:35.109Z,16.80
2023-03-24T19:09:05.471Z,16.65
2023-03-24T19:11:33.013Z,16.47
2023-03-24T19:14:00.597Z,16.31
2023-03-24T19:16:28.424Z,16.25
2023-03-24T19:18:57.943Z,16.29
2023-03-24T19:21:25.853Z,16.29
2023-03-24T19:23:53.323Z,16.26
2023-03-24T19:26:21.421Z,16.17
2023-03-24T19:28:49.120Z,16.01
2023-03-24T19:31:19.730Z,15.87
2023-03-24T19:33:48.197Z,15.74
2023-03-24T19:36:16.138Z,15.69
2023-03-24T19:38:44.888Z,15.78
2023-03-24T19:41:16.444Z,15.81
2023-03-24T19:43:44.268Z,15.78
2023-03-24T19:46:12.355Z,15.79
2023-03-24T19:48:39.872Z,15.79
2023-03-24T19:51:07.309Z,15.76
2023-03-24T19:53:34.992Z,15.84
2023-03-24T19:56:04.141Z,15.87
2023-03-24T19:58:31.696Z,15.87
2023-03-24T20:00:59.087Z,15.91
2023-03-24T20:03:28.853Z,15.90
2023-03-24T20:05:56.354Z,15.99
2023-03-24T20:08:25.993Z,16.02
2023-03-24T20:10:53.555Z,16.04
2023-03-24T20:13:20.985Z,16.04
2023-03-24T20:15:48.821Z,16.03
2023-03-24T20:18:17.283Z,16.02
2023-03-24T20:20:45.137Z,16.03
2023-03-24T20:23:13.068Z,16.13
2023-03-24T20:25:43.984Z,16.15
2023-03-24T20:28:11.490Z,16.19
2023-03-24T20:30:40.367Z,16.26
2023-03-24T20:33:08.369Z,16.46
2023-03-24T20:35:36.885Z,16.61
2023-03-24T20:38:05.089Z,16.69
2023-03-24T20:40:33.150Z,16.70
2023-03-24T20:43:00.877Z,16.65
2023-03-24T20:45:28.398Z,16.55
2023-03-24T20:47:56.414Z,16.44
2023-03-24T20:50:24.918Z,16.41
2023-03-24T20:52:52.292Z,16.49
2023-03-24T20:55:19.756Z,16.55
2023-03-24T20:57:48.349Z,16.63
2023-03-24T21:00:16.538Z,16.66
2023-03-24T21:02:44.471Z,16.73
2023-03-24T21:05:11.932Z,16.77
2023-03-24T21:07:43.556Z,16.64
2023-03-24T21:10:11.478Z,16.48
2023-03-24T21:12:52.732Z,16.34
2023-03-24T21:15:26.154Z,16.14
2023-03-24T21:17:54.537Z,16.05
2023-03-24T21:20:26.699Z,16.00
2023-03-24T21:22:55.076Z,15.94
2023-03-24T21:25:29.612Z,15.75
2023-03-24T21:27:58.297Z,15.67
2023-03-24T21:30:27.655Z,15.50
2023-03-24T21:32:57.582Z,15.36
2023-03-24T21:35:25.176Z,15.21
2023-03-24T21:37:53.964Z,15.10
2023-03-24T21:40:25.377Z,14.94
2023-03-24T21:42:53.952Z,14.87
2023-03-24T21:45:23.567Z,14.76
2023-03-24T21:47:55.274Z,14.67
2023-03-24T21:50:23.509Z,14.56
2023-03-24T21:52:52.695Z,14.58
2023-03-24T21:55:22.158Z,14.58
2023-03-24T21:57:51.045Z,14.57
2023-03-24T22:00:23.215Z,14.58
2023-03-24T22:02:54.442Z,14.58
2023-03-24T22:05:24.954Z,14.51
2023-03-24T22:07:52.800Z,14.47
2023-03-24T22:10:22.867Z,14.48
2023-03-24T22:12:52.341Z,14.46
2023-03-24T22:15:21.285Z,14.51
2023-03-24T22:17:49.783Z,14.61
2023-03-24T22:20:17.608Z,14.62
2023-03-24T22:22:45.616Z,14.56
2023-03-24T22:25:15.810Z,14.52
2023-03-24T22:27:43.438Z,14.58
2023-03-24T22:30:13.717Z,14.69
2023-03-24T22:32:42.242Z,14.74
2023-03-24T22:35:10.282Z,14.85
2023-03-24T22:37:37.838Z,14.90
2023-03-24T22:40:07.355Z,14.90
2023-03-24T22:42:34.966Z,14.78
2023-03-24T22:45:02.394Z,14.73
2023-03-24T22:47:29.817Z,14.62
2023-03-24T22:49:57.191Z,14.56
2023-03-24T22:52:25.323Z,14.54
2023-03-24T22:54:53.577Z,14.45
2023-03-24T22:57:21.152Z,14.33
2023-03-24T22:59:48.502Z,14.23
2023-03-24T23:02:17.591Z,14.09
2023-03-24T23:04:45.316Z,13.97
2023-03-24T23:07:12.827Z,13.92
2023-03-24T23:09:43.075Z,13.89
2023-03-24T23:12:11.393Z,13.92
2023-03-24T23:14:39.087Z,13.98
2023-03-24T23:17:09.494Z,14.05
2023-03-24T23:19:37.284Z,14.07
2023-03-24T23:22:05.130Z,14.07
2023-03-24T23:24:33.726Z,14.06
2023-03-24T23:27:01.203Z,14.01
2023-03-24T23:29:28.644Z,13.98
2023-03-24T23:31:56.030Z,13.94
2023-03-24T23:34:25.806Z,13.91
2023-03-24T23:36:53.201Z,13.87
2023-03-24T23:39:20.637Z,13.75
2023-03-24T23:41:48.005Z,13.56
2023-03-24T23:44:19.582Z,13.42
2023-03-24T23:46:47.465Z,13.26
2023-03-24T23:49:14.956Z,13.19
2023-03-24T23:51:42.370Z,13.21
2023-03-24T23:54:09.806Z,13.21
2023-03-24T23:56:38.539Z,13.24
2023-03-24T23:59:07.976Z,13.27
